N4877P KMQI-7NC2
Flight info
| Callsign | N4877P |
|---|---|
| Flight time | 0h 15m |
| Altitude | 2500 |
| Route | 3553N07541W DCT 3554N07536W DCT BLEEK DCT VPWZO DCT OYOCE |
| Aircraft | C172/L-SDFG/C |
Departure
| Time | 2026-05-05 23:01 |
|---|---|
| Airport | Dare County Regional Airport (KMQI) |
Arrival
| Time | 2026-05-05 23:16 |
|---|---|
| Airport | Pine Island Airport (7NC2) |
| Time | Latitude | Longitude | Altitude | Speed | Heading |
|---|---|---|---|---|---|
| 2026-05-05 22:48 | 35.91648 | -75.70097 | 7 ft | 0 kts | 354° |
| 2026-05-05 22:55 | 35.91654 | -75.70098 | 7 ft | 1 kts | 359° |
| 2026-05-05 22:55 | 35.91662 | -75.70110 | 7 ft | 5 kts | 232° |
| 2026-05-05 22:55 | 35.91605 | -75.70132 | 7 ft | 12 kts | 177° |
| 2026-05-05 22:56 | 35.91543 | -75.70077 | 7 ft | 10 kts | 50° |
| 2026-05-05 22:56 | 35.91600 | -75.70013 | 7 ft | 13 kts | 38° |
| 2026-05-05 22:56 | 35.91686 | -75.69930 | 7 ft | 17 kts | 39° |
| 2026-05-05 22:56 | 35.91795 | -75.69827 | 7 ft | 21 kts | 38° |
| 2026-05-05 22:57 | 35.91891 | -75.69733 | 9 ft | 0 kts | 38° |
| 2026-05-05 22:57 | 35.91916 | -75.69708 | 9 ft | 12 kts | 38° |
| 2026-05-05 22:57 | 35.92005 | -75.69622 | 10 ft | 17 kts | 38° |
| 2026-05-05 22:57 | 35.92101 | -75.69529 | 10 ft | 17 kts | 38° |
| 2026-05-05 22:58 | 35.92205 | -75.69430 | 10 ft | 20 kts | 38° |
| 2026-05-05 22:58 | 35.92307 | -75.69329 | 10 ft | 11 kts | 49° |
| 2026-05-05 22:58 | 35.92302 | -75.69294 | 10 ft | 0 kts | 130° |
| 2026-05-05 22:59 | 35.92294 | -75.69281 | 10 ft | 13 kts | 125° |
| 2026-05-05 22:59 | 35.92135 | -75.69368 | 10 ft | 46 kts | 215° |
| 2026-05-05 23:00 | 35.91463 | -75.70003 | 324 ft | 54 kts | 191° |
| 2026-05-05 23:00 | 35.91125 | -75.69782 | 455 ft | 64 kts | 153° |
| 2026-05-05 23:00 | 35.90768 | -75.69370 | 578 ft | 71 kts | 148° |
| 2026-05-05 23:01 | 35.90361 | -75.69043 | 729 ft | 70 kts | 161° |
| 2026-05-05 23:01 | 35.89955 | -75.68771 | 901 ft | 65 kts | 162° |
| 2026-05-05 23:01 | 35.89568 | -75.68540 | 1090 ft | 60 kts | 164° |
| 2026-05-05 23:01 | 35.89207 | -75.68353 | 1279 ft | 55 kts | 168° |
| 2026-05-05 23:02 | 35.88864 | -75.68170 | 1447 ft | 54 kts | 160° |
| 2026-05-05 23:02 | 35.88688 | -75.67721 | 1621 ft | 68 kts | 105° |
| 2026-05-05 23:02 | 35.88763 | -75.67099 | 1713 ft | 79 kts | 97° |
| 2026-05-05 23:02 | 35.88828 | -75.66419 | 1838 ft | 84 kts | 91° |
| 2026-05-05 23:03 | 35.88989 | -75.65698 | 1975 ft | 89 kts | 85° |
| 2026-05-05 23:03 | 35.89177 | -75.64970 | 2108 ft | 92 kts | 84° |
| 2026-05-05 23:03 | 35.89386 | -75.64217 | 2243 ft | 94 kts | 82° |
| 2026-05-05 23:03 | 35.89611 | -75.63442 | 2365 ft | 96 kts | 81° |
| 2026-05-05 23:04 | 35.89845 | -75.62659 | 2493 ft | 98 kts | 79° |
| 2026-05-05 23:04 | 35.90093 | -75.61814 | 2506 ft | 113 kts | 80° |
| 2026-05-05 23:04 | 35.90375 | -75.60864 | 2492 ft | 123 kts | 77° |
| 2026-05-05 23:04 | 35.90950 | -75.60018 | 2476 ft | 135 kts | 37° |
| 2026-05-05 23:05 | 35.91849 | -75.59702 | 2476 ft | 136 kts | 353° |
| 2026-05-05 23:05 | 35.92712 | -75.60071 | 2495 ft | 128 kts | 320° |
| 2026-05-05 23:05 | 35.93484 | -75.60619 | 2485 ft | 130 kts | 322° |
| 2026-05-05 23:05 | 35.94297 | -75.61111 | 2483 ft | 129 kts | 326° |
| 2026-05-05 23:06 | 35.95125 | -75.61549 | 2487 ft | 129 kts | 329° |
| 2026-05-05 23:06 | 35.95968 | -75.61963 | 2486 ft | 129 kts | 329° |
| 2026-05-05 23:06 | 35.96793 | -75.62352 | 2483 ft | 127 kts | 331° |
| 2026-05-05 23:06 | 35.97615 | -75.62739 | 2484 ft | 125 kts | 331° |
| 2026-05-05 23:07 | 35.98418 | -75.63141 | 2482 ft | 120 kts | 319° |
| 2026-05-05 23:07 | 35.99024 | -75.63772 | 2489 ft | 113 kts | 303° |
| 2026-05-05 23:07 | 35.99571 | -75.64475 | 2483 ft | 113 kts | 302° |
| 2026-05-05 23:07 | 36.00138 | -75.65165 | 2485 ft | 114 kts | 304° |
| 2026-05-05 23:08 | 36.00698 | -75.65853 | 2489 ft | 113 kts | 303° |
| 2026-05-05 23:08 | 36.01305 | -75.66476 | 2482 ft | 120 kts | 327° |
| 2026-05-05 23:08 | 36.02156 | -75.66660 | 2486 ft | 126 kts | 353° |
| 2026-05-05 23:08 | 36.03041 | -75.66650 | 2484 ft | 126 kts | 352° |
| 2026-05-05 23:09 | 36.03855 | -75.66915 | 2485 ft | 121 kts | 329° |
| 2026-05-05 23:09 | 36.04631 | -75.67321 | 2486 ft | 120 kts | 327° |
| 2026-05-05 23:09 | 36.05404 | -75.67741 | 2482 ft | 121 kts | 326° |
| 2026-05-05 23:09 | 36.06176 | -75.68161 | 2483 ft | 121 kts | 326° |
| 2026-05-05 23:10 | 36.06953 | -75.68584 | 2483 ft | 121 kts | 326° |
| 2026-05-05 23:10 | 36.07723 | -75.69003 | 2439 ft | 125 kts | 327° |
| 2026-05-05 23:10 | 36.08529 | -75.69434 | 2321 ft | 124 kts | 329° |
| 2026-05-05 23:10 | 36.09311 | -75.69851 | 2205 ft | 122 kts | 327° |
| 2026-05-05 23:11 | 36.10095 | -75.70276 | 2078 ft | 122 kts | 327° |
| 2026-05-05 23:11 | 36.10863 | -75.70689 | 1954 ft | 121 kts | 327° |
| 2026-05-05 23:11 | 36.11649 | -75.71117 | 1829 ft | 122 kts | 327° |
| 2026-05-05 23:11 | 36.12419 | -75.71535 | 1708 ft | 123 kts | 327° |
| 2026-05-05 23:12 | 36.13208 | -75.71964 | 1590 ft | 122 kts | 327° |
| 2026-05-05 23:12 | 36.13985 | -75.72386 | 1467 ft | 122 kts | 327° |
| 2026-05-05 23:12 | 36.14758 | -75.72804 | 1363 ft | 120 kts | 327° |
| 2026-05-05 23:12 | 36.15509 | -75.73219 | 1389 ft | 119 kts | 327° |
| 2026-05-05 23:13 | 36.16282 | -75.73646 | 1386 ft | 122 kts | 326° |
| 2026-05-05 23:13 | 36.17065 | -75.74072 | 1389 ft | 123 kts | 327° |
| 2026-05-05 23:13 | 36.17846 | -75.74500 | 1388 ft | 124 kts | 327° |
| 2026-05-05 23:13 | 36.18637 | -75.74927 | 1387 ft | 124 kts | 328° |
| 2026-05-05 23:14 | 36.19427 | -75.75356 | 1393 ft | 124 kts | 327° |
| 2026-05-05 23:14 | 36.20223 | -75.75790 | 1389 ft | 125 kts | 327° |
| 2026-05-05 23:14 | 36.21045 | -75.76236 | 1289 ft | 128 kts | 329° |
| 2026-05-05 23:14 | 36.21850 | -75.76662 | 1165 ft | 125 kts | 328° |
| 2026-05-05 23:15 | 36.22647 | -75.77095 | 1039 ft | 123 kts | 328° |
| 2026-05-05 23:15 | 36.23478 | -75.77365 | 876 ft | 130 kts | 346° |
| 2026-05-05 23:15 | 36.24340 | -75.77535 | 853 ft | 121 kts | 339° |
| 2026-05-05 23:15 | 36.25161 | -75.77858 | 705 ft | 123 kts | 338° |
| 2026-05-05 23:16 | 36.25923 | -75.78148 | 746 ft | 109 kts | 338° |
| 2026-05-05 23:16 | 36.26577 | -75.78357 | 761 ft | 90 kts | 336° |
| 2026-05-05 23:16 | 36.27017 | -75.78780 | 626 ft | 68 kts | 262° |
| 2026-05-05 23:16 | 36.26913 | -75.79185 | 553 ft | 42 kts | 187° |
| 2026-05-05 23:17 | 36.26598 | -75.79117 | 416 ft | 46 kts | 170° |
| 2026-05-05 23:17 | 36.26309 | -75.79032 | 289 ft | 45 kts | 169° |
| 2026-05-05 23:17 | 36.26000 | -75.78900 | 104 ft | 45 kts | 159° |
| 2026-05-05 23:17 | 36.25716 | -75.78751 | 27 ft | 46 kts | 159° |
| 2026-05-05 23:18 | 36.25446 | -75.78605 | 7 ft | 34 kts | 158° |
| 2026-05-05 23:18 | 36.25291 | -75.78526 | 7 ft | 0 kts | 155° |